Time;durP1;ratioP1;P1;durP2;ratioP2;P2;SDS_P1;SDS_P2;PMS_P1;PMS_P2;Temp;Humidity;BMP_temperature;BMP_pressure;BME280_temperature;BME280_humidity;BME280_pressure;Samples;Min_cycle;Max_cycle;Signal;HPM_P1;HPM_P2
2022/12/23 00:00:11;;;;;;;28.20;10.35;;;;;;;4.35;72.53;98876.38;4868262;29;19923;-93
2022/12/23 00:02:38;;;;;;;21.02;10.30;;;;;;;4.14;71.76;98818.94;4858032;29;20056;-94
2022/12/23 00:05:07;;;;;;;33.05;11.50;;;;;;;4.46;71.29;98871.69;4874254;29;20044;-95
2022/12/23 00:07:36;;;;;;;24.05;11.65;;;;;;;4.11;72.31;98851.16;4875174;29;20029;-93
2022/12/23 00:10:03;;;;;;;31.30;12.23;;;;;;;4.10;71.94;98835.97;4859736;29;20044;-94
2022/12/23 00:15:17;;;;;;;37.08;13.07;;;;;;;3.90;72.44;98818.81;4908887;29;20047;-95
2022/12/23 00:17:45;;;;;;;29.33;13.45;;;;;;;4.22;72.96;98877.03;4906535;29;20044;-94
2022/12/23 00:20:14;;;;;;;43.03;13.80;;;;;;;4.20;72.95;98871.88;4876339;29;20041;-95
2022/12/23 00:25:40;;;;;;;42.90;14.07;;;;;;;4.15;72.24;98844.88;4876034;29;20049;-93
2022/12/23 00:28:10;;;;;;;37.15;14.85;;;;;;;4.35;72.16;98875.56;4862849;29;20025;-93
2022/12/23 00:30:53;;;;;;;41.33;14.77;;;;;;;4.07;71.99;98820.31;4875744;29;20515;-94
2022/12/23 00:33:22;;;;;;;52.97;13.90;;;;;;;4.49;71.92;98865.72;4877375;29;20049;-94
2022/12/23 00:35:50;;;;;;;41.00;14.32;;;;;;;4.36;71.28;98850.13;4878681;29;20080;-94
2022/12/23 00:42:52;;;;;;;;;;;;;;;4.71;71.52;98914.00;4873628;29;20108;-95
2022/12/23 00:43:57;;;;;;;59.67;12.68;;;;;;;4.12;72.01;98839.22;4874286;29;20040;-96
2022/12/23 00:46:24;;;;;;;47.75;15.40;;;;;;;3.71;72.79;98816.00;4863192;29;20104;-94
2022/12/23 00:51:38;;;;;;;39.97;12.25;;;;;;;3.84;72.77;98809.16;4899429;29;19954;-93
2022/12/23 00:54:07;;;;;;;61.17;12.90;;;;;;;3.92;72.29;98802.31;4882804;29;20045;-93
2022/12/23 00:56:35;;;;;;;51.33;13.18;;;;;;;4.19;72.15;98834.31;4906615;29;20051;-95
2022/12/23 00:59:04;;;;;;;40.70;12.30;;;;;;;3.87;72.05;98795.03;4908671;29;20052;-95
2022/12/23 01:07:05;;;;;;;46.63;11.88;;;;;;;3.80;72.68;98786.44;4867555;29;20066;-94
2022/12/23 01:09:35;;;;;;;51.53;11.10;;;;;;;3.72;72.94;98789.75;4891152;29;20037;-95
2022/12/23 01:12:01;;;;;;;42.80;12.60;;;;;;;3.94;73.01;98819.88;4852822;29;20090;-94
2022/12/23 01:14:30;;;;;;;48.42;12.60;;;;;;;4.17;73.28;98839.19;4875147;29;20088;-94
2022/12/23 01:16:56;;;;;;;64.03;12.50;;;;;;;4.18;72.63;98830.78;4861640;29;20049;-93
2022/12/23 01:19:24;;;;;;;73.35;13.23;;;;;;;3.92;72.79;98781.50;4874107;29;20119;-93
2022/12/23 01:21:55;;;;;;;46.42;12.05;;;;;;;4.33;72.40;98843.38;4874725;29;20455;-94
2022/12/23 01:24:22;;;;;;;53.05;12.50;;;;;;;3.93;72.40;98785.81;4859423;29;20109;-94
2022/12/23 01:26:48;;;;;;;66.10;13.13;;;;;;;4.31;72.28;98842.06;4831835;29;20057;-94
2022/12/23 01:29:14;;;;;;;52.83;12.60;;;;;;;3.96;72.25;98787.16;4863696;29;20356;-93
2022/12/23 01:31:40;;;;;;;64.05;13.07;;;;;;;3.99;72.94;98808.22;4890462;29;20601;-95
2022/12/23 01:34:09;;;;;;;63.88;15.13;;;;;;;4.17;72.85;98829.19;4884664;29;20032;-94
2022/12/23 01:36:35;;;;;;;46.15;13.25;;;;;;;3.98;72.60;98810.13;4870096;29;20053;-94
2022/12/23 01:39:02;;;;;;;46.63;12.85;;;;;;;4.38;72.88;98865.00;4881853;29;20044;-96
2022/12/23 01:44:33;;;;;;;;;;;;;;;4.42;72.45;98860.63;4908244;29;20498;-95
2022/12/23 01:47:12;;;;;;;46.42;11.85;;;;;;;3.83;72.40;98766.16;4892714;29;19930;-95
2022/12/23 01:50:07;;;;;;;42.47;13.27;;;;;;;4.00;72.80;98801.72;4875895;29;20060;-95
2022/12/23 01:53:02;;;;;;;51.92;14.18;;;;;;;3.96;72.37;98798.75;4866728;29;20044;-94
2022/12/23 01:55:42;;;;;;;30.50;12.02;;;;;;;3.77;72.79;98773.50;4883095;29;20059;-91
2022/12/23 01:58:18;;;;;;;37.63;12.57;;;;;;;4.15;72.84;98834.06;4876625;29;20056;-93
2022/12/23 02:03:44;;;;;;;39.28;13.45;;;;;;;3.90;73.96;98843.16;4877105;29;20143;-95
2022/12/23 02:09:31;;;;;;;42.25;15.00;;;;;;;3.56;73.45;98770.13;4856473;29;20384;-94
2022/12/23 02:12:30;;;;;;;37.22;15.30;;;;;;;4.21;73.28;98848.38;4850499;29;20053;-95
2022/12/23 02:18:41;;;;;;;41.65;13.88;;;;;;;4.24;72.92;98854.00;4892858;29;20034;-94
2022/12/23 02:21:30;;;;;;;42.15;15.55;;;;;;;3.97;72.58;98803.09;4847074;29;20081;-95
2022/12/23 02:24:02;;;;;;;45.17;15.50;;;;;;;4.39;72.47;98861.19;4855086;29;20044;-95
2022/12/23 02:26:49;;;;;;;36.03;14.82;;;;;;;4.27;72.81;98858.03;4857122;29;20076;-95
2022/12/23 02:29:34;;;;;;;;;;;;;;;4.29;72.47;98850.44;4869200;29;20045;-95
2022/12/23 02:32:30;;;;;;;30.67;13.48;;;;;;;4.40;72.21;98840.34;4835296;29;19924;-95
2022/12/23 02:35:37;;;;;;;35.55;14.23;;;;;;;4.32;72.07;98803.09;4855367;29;20052;-95
2022/12/23 02:38:20;;;;;;;42.92;14.55;;;;;;;4.17;71.68;98787.78;4858220;29;20068;-95
2022/12/23 02:41:06;;;;;;;39.08;15.07;;;;;;;4.29;72.59;98836.13;4858923;29;20515;-94
2022/12/23 02:44:30;;;;;;;41.83;16.08;;;;;;;4.16;72.70;98788.88;4864024;29;20056;-94
2022/12/23 02:47:29;;;;;;;36.85;15.15;;;;;;;3.52;72.61;98694.22;4866945;29;20081;-95
2022/12/23 02:50:07;;;;;;;48.08;16.25;;;;;;;3.99;72.56;98781.97;4869371;29;20048;-95
2022/12/23 02:52:36;;;;;;;32.00;14.38;;;;;;;4.11;72.76;98786.22;4855645;29;20064;-94
2022/12/23 02:55:15;;;;;;;42.70;15.55;;;;;;;3.58;72.82;98727.44;4854019;29;20049;-96
2022/12/23 02:57:54;;;;;;;47.03;16.17;;;;;;;3.71;73.27;98761.13;4842225;29;20017;-94
2022/12/23 03:00:22;;;;;;;30.02;14.13;;;;;;;3.88;73.08;98785.88;4864032;29;20056;-95
2022/12/23 03:02:55;;;;;;;32.35;15.48;;;;;;;3.80;73.09;98767.53;4855721;29;20132;-95
2022/12/23 03:05:44;;;;;;;38.42;17.33;;;;;;;4.13;73.02;98798.34;4841882;29;20603;-94
2022/12/23 03:08:39;;;;;;;35.40;14.48;;;;;;;3.76;72.84;98756.47;4851801;29;20065;-94
2022/12/23 03:11:53;;;;;;;34.50;15.13;;;;;;;3.79;73.01;98774.03;4861494;29;20076;-95
2022/12/23 03:14:59;;;;;;;35.78;15.88;;;;;;;4.03;73.50;98820.09;4873614;29;20039;-95
2022/12/23 03:23:31;;;;;;;34.05;15.10;;;;;;;3.55;73.23;98754.22;5118321;23;20028;-95
2022/12/23 03:26:49;;;;;;;33.38;16.02;;;;;;;3.86;73.55;98808.84;4895125;29;20048;-94
2022/12/23 03:57:32;;;;;;;34.53;15.45;;;;;;;4.09;73.23;98839.78;1137119;23;20330;-95
2022/12/23 04:04:51;;;;;;;38.10;14.80;;;;;;;4.35;72.27;98838.50;4767967;29;20075;-94
2022/12/23 04:07:58;;;;;;;33.53;15.02;;;;;;;4.18;72.90;98846.22;4809583;29;20054;-95
2022/12/23 04:10:25;;;;;;;42.65;16.08;;;;;;;3.45;73.56;98757.78;4788754;29;20046;-94
2022/12/23 04:13:05;;;;;;;33.33;15.32;;;;;;;3.99;73.64;98844.19;4804258;29;20086;-94
2022/12/23 04:15:41;;;;;;;32.47;15.48;;;;;;;4.06;73.58;98851.16;4792386;29;20621;-95
2022/12/23 04:18:22;;;;;;;34.13;15.45;;;;;;;3.46;73.47;98746.69;4791246;29;20056;-94
2022/12/23 04:20:50;;;;;;;32.55;15.27;;;;;;;3.78;73.52;98801.34;4802868;29;20070;-93
2022/12/23 04:23:19;;;;;;;27.98;14.07;;;;;;;4.11;73.13;98845.75;4799669;29;20043;-95
2022/12/23 04:25:51;;;;;;;32.08;14.80;;;;;;;3.98;73.11;98812.03;4771482;29;20058;-95
2022/12/23 04:28:18;;;;;;;32.63;15.18;;;;;;;3.91;72.65;98779.88;4773724;29;20083;-93
2022/12/23 04:30:53;;;;;;;32.70;15.48;;;;;;;4.21;72.30;98815.91;4801692;29;20166;-95
2022/12/23 04:33:41;;;;;;;30.98;15.40;;;;;;;3.71;72.62;98748.41;4804088;29;20450;-95
2022/12/23 04:36:09;;;;;;;31.30;15.95;;;;;;;3.79;72.78;98741.59;4804881;29;20106;-94
2022/12/23 04:38:38;;;;;;;32.90;15.63;;;;;;;3.81;73.23;98774.56;4776361;29;20082;-93
2022/12/23 04:41:06;;;;;;;37.30;14.70;;;;;;;3.79;73.09;98768.63;4833355;29;20047;-93
2022/12/23 04:43:36;;;;;;;32.17;14.77;;;;;;;3.69;73.09;98749.78;4807032;29;20046;-92
2022/12/23 04:46:04;;;;;;;32.47;15.27;;;;;;;4.36;72.52;98850.13;4841541;29;20547;-95
2022/12/23 04:48:30;;;;;;;33.35;15.45;;;;;;;4.21;72.45;98815.91;4871847;29;20052;-94
2022/12/23 04:51:01;;;;;;;33.47;16.00;;;;;;;3.90;72.38;98772.03;4876485;29;20048;-95
2022/12/23 04:53:42;;;;;;;35.22;15.60;;;;;;;4.06;72.13;98789.78;4863961;29;20068;-96
2022/12/23 04:56:12;;;;;;;33.17;15.38;;;;;;;4.25;72.23;98827.75;4859849;29;20037;-95
2022/12/23 04:58:53;;;;;;;36.85;16.60;;;;;;;4.34;72.87;98847.72;4876973;29;20081;-94
2022/12/23 05:01:26;;;;;;;32.80;14.95;;;;;;;3.74;72.53;98750.56;4833292;29;20057;-96
2022/12/23 05:15:45;;;;;;;26.73;12.88;;;;;;;3.88;72.95;98787.75;5494280;23;20043;-91
2022/12/23 05:18:12;;;;;;;28.67;13.02;;;;;;;3.92;72.87;98792.31;4896849;29;20473;-90
2022/12/23 05:20:38;;;;;;;27.98;14.10;;;;;;;4.17;72.72;98820.25;4874690;29;20028;-90
2022/12/23 05:23:08;;;;;;;28.67;14.35;;;;;;;4.45;72.33;98818.66;4868114;29;20120;-93
2022/12/23 05:25:36;;;;;;;31.00;14.35;;;;;;;4.13;72.30;98792.94;4851074;29;20055;-90
2022/12/23 05:28:08;;;;;;;29.42;13.45;;;;;;;4.26;72.33;98817.75;4862753;29;20100;-91
2022/12/23 05:30:34;;;;;;;29.88;13.18;;;;;;;4.04;72.63;98791.13;4866572;29;20040;-90
2022/12/23 05:33:08;;;;;;;35.53;13.88;;;;;;;4.09;72.18;98770.28;4879763;29;20048;-92
2022/12/23 05:35:35;;;;;;;28.98;14.43;;;;;;;4.27;72.29;98822.84;4867914;29;20036;-89
2022/12/23 05:38:03;;;;;;;32.97;14.95;;;;;;;4.20;72.58;98811.56;4865420;29;20049;-95
2022/12/23 05:40:30;;;;;;;31.05;15.88;;;;;;;4.07;72.70;98785.16;4865104;29;20069;-91
2022/12/23 05:42:56;;;;;;;42.70;17.80;;;;;;;4.07;72.20;98741.88;4863325;29;20057;-91
2022/12/23 05:45:24;;;;;;;33.42;15.45;;;;;;;3.89;72.17;98738.00;4860718;29;20112;-91
2022/12/23 05:47:50;;;;;;;32.42;15.43;;;;;;;4.32;72.03;98800.38;4862294;29;20049;-91
2022/12/23 05:50:18;;;;;;;36.35;16.13;;;;;;;4.33;72.38;98797.38;4865509;29;20064;-91
2022/12/23 05:52:48;;;;;;;36.13;16.95;;;;;;;3.96;72.54;98743.88;4868664;29;20075;-92
2022/12/23 05:55:17;;;;;;;34.40;16.08;;;;;;;4.20;72.86;98804.25;4867320;29;20072;-93
2022/12/23 05:57:44;;;;;;;48.15;16.88;;;;;;;3.70;73.05;98741.38;4877766;29;20047;-89
2022/12/23 06:00:10;;;;;;;41.45;16.75;;;;;;;3.95;73.57;98770.13;4868275;29;20049;-91
2022/12/23 06:02:40;;;;;;;40.45;16.92;;;;;;;3.83;73.84;98775.06;4870666;29;20076;-89
2022/12/23 06:05:09;;;;;;;56.80;18.88;;;;;;;3.51;73.76;98721.53;4887987;29;20036;-88
2022/12/23 06:07:37;;;;;;;39.15;17.20;;;;;;;3.87;74.03;98764.50;4891716;29;20091;-92
2022/12/23 06:10:14;;;;;;;41.15;17.42;;;;;;;4.01;73.35;98773.59;4865331;29;20025;-92
2022/12/23 06:12:40;;;;;;;43.17;16.85;;;;;;;3.98;73.17;98764.16;4846901;29;20053;-90
2022/12/23 06:15:06;;;;;;;41.70;17.70;;;;;;;4.31;72.39;98782.53;4876618;29;20059;-91
2022/12/23 06:17:35;;;;;;;40.10;16.30;;;;;;;3.98;72.67;98772.25;4864397;29;20052;-90
2022/12/23 06:20:02;;;;;;;42.33;16.10;;;;;;;3.72;73.39;98747.31;4859561;29;20077;-92
2022/12/23 06:22:31;;;;;;;41.40;16.85;;;;;;;4.06;74.19;98799.78;4875140;29;20785;-92
2022/12/23 06:24:58;;;;;;;40.35;16.35;;;;;;;4.27;73.76;98809.31;4858493;29;20037;-92
2022/12/23 06:27:27;;;;;;;45.30;17.88;;;;;;;4.02;73.45;98744.66;4847125;29;20049;-90
2022/12/23 06:29:54;;;;;;;35.38;16.05;;;;;;;3.93;72.97;98731.72;4877188;29;20052;-90
2022/12/23 06:32:31;;;;;;;45.80;16.77;;;;;;;4.22;73.10;98779.63;4881362;29;20052;-91
2022/12/23 06:34:57;;;;;;;49.05;16.38;;;;;;;3.86;73.33;98723.13;4865168;29;20574;-92
2022/12/23 06:37:23;;;;;;;43.35;16.42;;;;;;;4.11;73.60;98772.72;4869304;29;20096;-92
2022/12/23 06:39:49;;;;;;;36.88;15.82;;;;;;;4.41;73.07;98783.25;4897487;29;20036;-91
2022/12/23 06:42:18;;;;;;;50.42;16.42;;;;;;;4.13;73.50;98781.31;4886329;29;20533;-92
2022/12/23 06:44:47;;;;;;;41.47;16.98;;;;;;;3.94;74.20;98763.09;4901189;29;20040;-91
2022/12/23 06:47:13;;;;;;;36.42;16.55;;;;;;;3.68;74.00;98735.47;4875877;29;20045;-92
2022/12/23 06:49:39;;;;;;;46.20;18.10;;;;;;;3.66;74.28;98731.41;4861079;29;20083;-92
2022/12/23 06:52:05;;;;;;;45.63;17.73;;;;;;;3.98;74.40;98791.19;4874454;29;20049;-94
2022/12/23 06:54:31;;;;;;;38.10;16.17;;;;;;;3.99;74.46;98800.09;4856596;29;20048;-91
2022/12/23 06:56:57;;;;;;;49.40;17.02;;;;;;;4.05;75.71;98798.19;4857517;29;20148;-92
2022/12/23 06:59:24;;;;;;;;;;;;;;;4.22;74.54;98796.66;4862165;29;20032;-93
2022/12/23 07:01:51;;;;;;;;;;;;;;;4.29;74.91;98804.47;4890535;29;19935;-93
2022/12/23 07:04:18;;;;;;;32.50;14.82;;;;;;;4.16;75.76;98742.91;4860617;29;19923;-92
2022/12/23 07:06:47;;;;;;;38.88;13.30;;;;;;;4.16;73.44;98740.19;4877395;29;20116;-92
2022/12/23 07:09:14;;;;;;;36.47;14.48;;;;;;;4.36;72.68;98767.03;4858416;29;20036;-88
2022/12/23 07:11:41;;;;;;;33.20;14.15;;;;;;;4.10;73.02;98769.16;4880807;29;20044;-91
2022/12/23 07:14:07;;;;;;;35.28;14.75;;;;;;;3.85;73.36;98737.75;4876688;29;20387;-90
2022/12/23 07:16:33;;;;;;;26.48;9.20;;;;;;;3.64;73.86;98733.59;4874560;29;20060;-90
2022/12/23 07:19:00;;;;;;;37.15;15.48;;;;;;;4.04;74.61;98800.09;4834304;29;20089;-92
2022/12/23 07:24:53;;;;;;;51.67;15.05;;;;;;;4.06;74.65;98787.06;4862155;29;19978;-92
2022/12/23 07:27:40;;;;;;;36.40;15.40;;;;;;;3.65;74.50;98729.81;4822528;29;20119;-95
2022/12/23 07:30:09;;;;;;;31.60;13.75;;;;;;;3.74;74.41;98738.91;4806357;29;20110;-94
2022/12/23 08:16:25;;;;;;;45.17;17.17;;;;;;;3.73;76.01;98764.34;4894213;29;20120;-95
2022/12/23 08:20:34;;;;;;;45.80;18.58;;;;;;;3.50;76.43;98750.44;4844028;29;20089;-94
2022/12/23 08:25:01;;;;;;;;;;;;;;;;;;;;;
2022/12/23 08:28:21;;;;;;;40.70;17.30;;;;;;;3.23;75.83;98658.22;4784392;30;20131;-94
2022/12/23 08:35:19;;;;;;;41.22;15.82;;;;;;;3.35;76.36;98696.50;4730461;30;20064;-94
2022/12/23 08:38:15;;;;;;;40.90;18.35;;;;;;;3.50;76.61;98720.72;4709029;30;20168;-94
2022/12/23 08:41:22;;;;;;;39.85;17.42;;;;;;;3.06;76.59;98662.13;4729686;30;20056;-93
2022/12/23 08:44:04;;;;;;;41.78;16.63;;;;;;;3.36;76.95;98727.84;4705192;30;20193;-94
2022/12/23 08:46:47;;;;;;;40.20;16.50;;;;;;;2.89;77.07;98645.50;4709507;30;20124;-93
2022/12/23 08:49:29;;;;;;;41.72;16.35;;;;;;;3.34;77.19;98711.09;4715766;30;20072;-95
2022/12/23 08:53:16;;;;;;;35.92;15.55;;;;;;;3.47;77.75;98742.06;4732729;30;20044;-95
2022/12/23 08:56:44;;;;;;;42.65;16.10;;;;;;;3.13;78.31;98705.00;4735075;30;20059;-96
2022/12/23 09:16:39;;;;;;;44.33;17.48;;;;;;;2.98;78.63;98665.41;4915330;29;20044;-94
2022/12/23 09:43:17;;;;;;;61.10;18.75;;;;;;;3.09;77.46;98604.06;5559517;23;20056;-93
2022/12/23 10:05:01;;;;;;;47.78;18.88;;;;;;;3.66;77.88;98678.16;5053347;23;20052;-94
2022/12/23 10:08:09;;;;;;;40.28;18.30;;;;;;;3.26;77.25;98598.25;4814607;29;20059;-93
2022/12/23 10:58:35;;;;;;;68.13;28.92;;;;;;;4.33;75.44;98599.06;1327811;23;20302;-94
2022/12/23 11:01:06;;;;;;;54.33;24.73;;;;;;;3.91;74.88;98517.63;4892383;29;20068;-93
2022/12/23 11:04:08;;;;;;;56.00;24.77;;;;;;;3.73;74.97;98504.84;4866649;29;20060;-94
2022/12/23 11:06:55;;;;;;;55.58;24.88;;;;;;;4.14;74.70;98563.84;4839485;29;20034;-93
2022/12/23 11:10:24;;;;;;;70.38;28.58;;;;;;;3.69;75.02;98528.94;4826390;29;20121;-95
2022/12/23 11:12:58;;;;;;;46.78;21.17;;;;;;;3.88;75.25;98580.38;4818258;29;20130;-94
2022/12/23 11:19:24;;;;;;;25.08;15.40;;;;;;;3.56;76.30;98553.16;4416902;23;15342280;-93
2022/12/23 11:22:01;;;;;;;25.65;14.23;;;;;;;3.88;76.37;98602.00;4877866;29;20526;-95
2022/12/23 11:24:31;;;;;;;24.95;15.23;;;;;;;3.29;76.20;98500.47;4889919;29;20051;-94
2022/12/23 11:27:05;;;;;;;27.42;15.50;;;;;;;3.79;76.01;98568.56;4863813;29;20043;-90
2022/12/23 11:29:42;;;;;;;27.17;15.45;;;;;;;3.52;75.65;98515.88;4873281;29;20079;-92
2022/12/23 11:32:29;;;;;;;28.02;14.73;;;;;;;3.73;75.57;98572.41;4883287;29;20127;-89
2022/12/23 11:34:57;;;;;;;25.63;13.30;;;;;;;3.57;75.77;98554.75;4841332;29;20044;-94
2022/12/23 11:37:44;;;;;;;40.28;14.32;;;;;;;3.52;75.55;98507.78;4902336;29;20024;-94
2022/12/23 11:40:39;;;;;;;23.13;13.82;;;;;;;3.90;75.03;98583.59;4884736;29;20096;-93
2022/12/23 11:43:14;;;;;;;;;;;;;;;4.24;75.24;98615.16;4881186;29;20020;-94
2022/12/23 11:46:11;;;;;;;19.52;13.70;;;;;;;3.90;75.36;98577.38;4891954;29;19970;-95
2022/12/23 11:49:16;;;;;;;26.42;12.85;;;;;;;4.02;75.16;98588.59;4906640;29;20108;-94
2022/12/23 12:52:28;;;;;;;19.95;11.75;;;;;;;3.16;76.87;98482.22;4845354;29;20070;-93
2022/12/23 12:55:12;;;;;;;17.45;11.15;;;;;;;3.73;76.74;98570.53;4842224;29;20370;-93
2022/12/23 12:57:44;;;;;;;19.60;11.98;;;;;;;2.94;76.91;98459.19;4828053;29;20508;-95
2022/12/23 13:00:26;;;;;;;21.35;12.48;;;;;;;3.78;76.64;98574.28;4835200;29;20030;-92
2022/12/23 13:03:23;;;;;;;19.08;11.40;;;;;;;3.71;76.89;98571.91;4841000;29;20072;-93
2022/12/23 13:06:12;;;;;;;19.55;11.00;;;;;;;3.72;76.90;98565.41;4795448;29;20058;-93
2022/12/23 13:09:18;;;;;;;14.40;8.85;;;;;;;3.60;77.11;98568.50;4797373;29;20119;-95
2022/12/23 13:12:40;;;;;;;17.60;10.35;;;;;;;3.15;77.18;98492.22;4894115;23;20079;-95
2022/12/23 13:16:07;;;;;;;15.25;9.55;;;;;;;3.02;77.33;98472.09;4998245;23;20111;-95
2022/12/23 13:38:41;;;;;;;12.57;8.00;;;;;;;3.42;78.05;98553.00;4883951;29;20061;-95
2022/12/23 13:41:44;;;;;;;20.25;9.43;;;;;;;2.92;78.04;98458.69;4846645;29;20048;-95
2022/12/23 13:44:31;;;;;;;16.42;8.80;;;;;;;2.86;77.66;98454.41;4854678;29;20041;-94
2022/12/23 13:47:45;;;;;;;11.40;7.63;;;;;;;2.78;77.89;98445.03;4864643;29;20049;-91
2022/12/23 13:50:43;;;;;;;12.35;7.05;;;;;;;2.88;77.63;98457.63;4850311;29;20045;-95
2022/12/23 13:53:31;;;;;;;13.60;7.72;;;;;;;3.45;77.82;98552.44;4902155;29;20049;-96
2022/12/23 13:56:12;;;;;;;12.38;7.72;;;;;;;3.59;77.69;98550.69;4872070;29;20047;-94
2022/12/23 14:01:51;;;;;;;12.65;7.32;;;;;;;3.10;77.58;98483.34;4881493;29;20065;-93
2022/12/23 14:04:59;;;;;;;14.15;7.45;;;;;;;3.26;77.59;98498.31;4851704;29;20045;-94
2022/12/23 14:07:37;;;;;;;13.18;6.93;;;;;;;2.85;77.79;98450.09;4869140;29;20056;-93
2022/12/23 14:10:24;;;;;;;10.23;6.80;;;;;;;2.93;77.65;98457.59;4851684;29;20068;-94
2022/12/23 14:12:59;;;;;;;12.30;6.93;;;;;;;2.95;77.70;98444.63;4852929;29;20045;-94
2022/12/23 14:16:13;;;;;;;13.63;5.95;;;;;;;3.42;77.85;98545.72;4854884;29;20029;-95
2022/12/23 14:22:06;;;;;;;8.82;5.90;;;;;;;2.73;78.54;98449.66;4915985;29;19927;-93
2022/12/23 14:24:57;;;;;;;11.25;7.07;;;;;;;3.40;78.49;98534.38;4871126;29;20037;-94
2022/12/23 14:27:49;;;;;;;13.52;6.75;;;;;;;3.47;78.44;98542.94;4888905;29;20036;-96
2022/12/23 14:30:44;;;;;;;13.77;8.35;;;;;;;2.78;78.41;98419.91;4881095;29;20048;-94
2022/12/23 14:33:37;;;;;;;17.77;7.32;;;;;;;3.57;77.71;98536.63;4873261;29;20072;-96
2022/12/23 14:36:33;;;;;;;14.02;6.68;;;;;;;3.19;77.98;98492.44;4905569;29;20100;-95
2022/12/23 14:39:12;;;;;;;13.55;6.68;;;;;;;3.55;77.85;98544.25;4798458;29;20077;-92
2022/12/23 14:42:39;;;;;;;12.45;7.75;;;;;;;3.11;77.70;98480.34;5262545;23;21203;-96
2022/12/23 15:04:04;;;;;;;15.98;9.10;;;;;;;3.63;77.93;98513.06;1888003;23;20306;-94
2022/12/23 15:06:54;;;;;;;11.00;7.85;;;;;;;3.09;77.96;98454.75;4889792;29;20055;-94
2022/12/23 15:10:08;;;;;;;12.43;7.55;;;;;;;2.73;78.06;98396.50;5002843;23;20079;-95
2022/12/23 15:13:50;;;;;;;10.77;6.80;;;;;;;2.73;78.42;98411.88;5182975;23;22550;-95
2022/12/23 15:17:04;;;;;;;12.07;7.75;;;;;;;2.75;78.39;98413.22;4915100;29;20048;-95
2022/12/23 15:19:50;;;;;;;10.47;7.30;;;;;;;2.63;78.57;98380.41;4867563;29;20044;-94
2022/12/23 15:22:34;;;;;;;11.85;8.10;;;;;;;3.03;78.54;98448.59;4862199;29;20056;-95
2022/12/23 15:25:46;;;;;;;11.55;8.10;;;;;;;2.96;78.80;98432.72;4872586;29;20124;-95
2022/12/23 15:31:57;;;;;;;34.35;8.43;;;;;;;3.20;78.64;98467.03;4982313;23;20340;-95
2022/12/23 15:39:12;;;;;;;18.55;9.45;;;;;;;2.92;78.90;98447.06;4826683;29;20045;-94
2022/12/23 15:42:23;;;;;;;16.95;9.10;;;;;;;2.89;79.01;98443.03;4812231;29;20118;-94
2022/12/23 15:45:35;;;;;;;18.40;9.45;;;;;;;3.06;79.13;98456.13;4812670;29;20084;-94
2022/12/23 15:48:29;;;;;;;17.27;8.40;;;;;;;2.56;79.54;98385.31;4828454;29;20062;-94
2022/12/23 15:51:48;;;;;;;18.35;10.35;;;;;;;2.93;79.58;98445.97;5151701;23;20062;-94
2022/12/23 15:54:51;;;;;;;22.23;11.43;;;;;;;3.09;79.84;98460.16;4904159;29;20036;-92
2022/12/23 15:57:29;;;;;;;21.85;11.52;;;;;;;2.71;80.08;98404.06;4903192;29;20032;-93
2022/12/23 16:03:34;;;;;;;20.77;10.43;;;;;;;3.37;79.43;98480.09;4985086;23;20053;-93
2022/12/23 16:06:16;;;;;;;23.80;12.35;;;;;;;3.36;79.47;98483.91;4864842;29;20045;-94
2022/12/23 16:11:50;;;;;;;26.58;12.75;;;;;;;2.80;79.81;98405.06;4963994;23;20056;-93
2022/12/23 16:14:48;;;;;;;21.88;11.77;;;;;;;3.20;80.09;98481.34;4899156;29;20033;-92
2022/12/23 16:18:51;;;;;;;18.48;8.73;;;;;;;3.15;80.32;98489.53;4937955;23;20052;-93
2022/12/23 16:21:56;;;;;;;18.92;10.80;;;;;;;3.11;80.70;98493.84;4850497;29;20037;-93
2022/12/23 16:25:13;;;;;;;33.38;14.38;;;;;;;2.62;80.77;98407.69;4864179;29;20139;-94
2022/12/23 16:28:33;;;;;;;23.20;11.75;;;;;;;3.09;80.91;98482.56;4823345;29;20070;-92
2022/12/23 16:31:22;;;;;;;20.25;11.45;;;;;;;2.50;80.60;98372.97;4787382;29;20060;-94
2022/12/23 16:33:57;;;;;;;24.55;12.27;;;;;;;3.17;80.91;98483.81;4745126;30;20040;-94
2022/12/23 16:36:28;;;;;;;;;;;;;;;3.21;80.85;98474.88;4761633;30;20128;-95
2022/12/23 16:43:19;;;;;;;30.00;15.53;;;;;;;3.24;80.75;98468.09;4983809;23;20080;-93
2022/12/23 16:45:55;;;;;;;30.42;14.80;;;;;;;2.53;80.66;98372.41;4880660;29;20068;-93
2022/12/23 16:52:13;;;;;;;31.02;15.02;;;;;;;2.59;80.59;98379.38;4868656;29;20029;-93
2022/12/23 16:55:50;;;;;;;32.28;15.82;;;;;;;3.15;81.05;98464.41;4839230;29;20049;-93
2022/12/23 17:36:45;;;;;;;35.65;18.73;;;;;;;3.15;81.59;98443.63;4842910;29;19964;-92
2022/12/23 17:39:47;;;;;;;40.83;20.00;;;;;;;2.95;81.17;98387.94;4832061;29;20137;-91
2022/12/23 17:42:18;;;;;;;38.00;18.95;;;;;;;3.34;80.89;98435.56;4801474;29;20059;-91
2022/12/23 18:10:39;;;;;;;29.85;15.27;;;;;;;3.43;81.44;98484.38;1118174;23;20311;-92
2022/12/23 18:16:05;;;;;;;28.47;15.80;;;;;;;3.46;80.94;98473.78;5114573;23;20040;-94
2022/12/23 18:18:33;;;;;;;34.00;18.55;;;;;;;3.46;80.98;98468.41;5094224;24;20121;-92
2022/12/23 18:28:20;;;;;;;27.20;14.15;;;;;;;2.81;80.56;98378.88;4921601;29;20055;-92
2022/12/23 18:31:58;;;;;;;26.60;13.80;;;;;;;3.18;81.13;98434.13;5089499;23;20529;-90
2022/12/23 18:34:30;;;;;;;25.88;14.27;;;;;;;2.87;81.06;98385.84;4877213;29;20128;-93
2022/12/23 18:37:15;;;;;;;24.67;14.43;;;;;;;3.08;80.81;98412.63;4849117;29;20057;-91
2022/12/23 18:42:55;;;;;;;23.67;13.13;;;;;;;3.27;80.39;98418.91;5406562;23;20072;-92
2022/12/23 18:46:01;;;;;;;20.80;11.45;;;;;;;3.61;80.30;98485.53;4903563;29;20059;-93
2022/12/23 18:48:41;;;;;;;22.00;12.27;;;;;;;3.64;80.11;98479.53;4904544;29;20136;-91
2022/12/23 18:54:27;;;;;;;21.63;10.30;;;;;;;3.69;80.31;98490.31;5596258;23;20103;-93
2022/12/23 18:57:03;;;;;;;24.50;13.13;;;;;;;3.47;79.84;98453.78;4904718;29;20052;-92
2022/12/23 18:59:31;;;;;;;23.52;13.00;;;;;;;3.68;79.98;98486.81;4855950;29;20044;-91
2022/12/23 19:02:24;;;;;;;30.17;14.00;;;;;;;3.56;79.99;98469.38;4854899;29;20056;-92
2022/12/23 19:04:56;;;;;;;21.95;9.70;;;;;;;2.95;79.96;98393.31;5074800;23;20111;-89
2022/12/23 19:07:23;;;;;;;38.88;14.43;;;;;;;3.00;80.38;98403.25;4898522;29;20036;-92
2022/12/23 19:09:50;;;;;;;;;;;;;;;3.62;80.29;98487.94;4903335;29;20044;-92
2022/12/23 19:12:29;;;;;;;30.38;12.95;;;;;;;3.53;80.17;98476.16;5154247;23;19932;-90
2022/12/23 19:15:24;;;;;;;38.45;14.98;;;;;;;2.96;79.97;98392.22;4815261;29;20033;-91
2022/12/23 19:17:56;;;;;;;29.80;12.93;;;;;;;3.50;79.90;98474.81;5165093;23;20736;-91
2022/12/23 19:21:14;;;;;;;23.40;11.65;;;;;;;3.70;79.86;98491.91;5090778;23;20056;-92
2022/12/23 19:23:49;;;;;;;39.38;14.23;;;;;;;3.05;79.92;98392.41;4872475;29;20061;-92
2022/12/23 19:26:23;;;;;;;32.60;12.82;;;;;;;3.29;79.81;98441.84;4885082;29;20533;-92
2022/12/23 19:28:52;;;;;;;25.17;12.40;;;;;;;3.50;79.48;98463.22;4910938;29;20043;-91
2022/12/23 19:31:51;;;;;;;42.72;14.55;;;;;;;3.74;79.75;98503.75;4885183;29;20451;-94
2022/12/23 19:46:29;;;;;;;25.67;11.15;;;;;;;3.47;79.97;98496.22;5089668;23;20064;-94
2022/12/23 20:05:45;;;;;;;19.95;10.07;;;;;;;3.60;79.95;98535.25;5677145;23;20031;31
2022/12/23 20:09:31;;;;;;;26.58;11.80;;;;;;;3.58;80.22;98538.25;4867358;29;20085;-94
2022/12/23 20:16:15;;;;;;;21.65;10.32;;;;;;;3.29;80.04;98511.25;4969657;23;20075;-94
2022/12/23 20:18:48;;;;;;;25.42;11.90;;;;;;;3.20;80.21;98502.16;4819464;29;20050;-90
2022/12/23 20:21:19;;;;;;;20.27;10.68;;;;;;;3.34;80.16;98515.78;4815926;29;20058;-89
2022/12/23 20:23:47;;;;;;;20.20;10.18;;;;;;;3.35;79.88;98518.22;4795378;29;20134;-92
2022/12/23 20:26:15;;;;;;;18.40;10.63;;;;;;;3.62;79.95;98555.50;4799370;29;20536;-92
2022/12/23 20:28:43;;;;;;;22.45;11.07;;;;;;;3.40;79.75;98512.75;4794957;29;20070;-93
2022/12/23 20:31:30;;;;;;;25.80;12.80;;;;;;;3.44;79.70;98530.00;4822360;29;20060;-90
2022/12/23 20:34:08;;;;;;;17.23;9.73;;;;;;;3.43;79.66;98538.41;4820534;29;20689;-91
2022/12/23 20:36:38;;;;;;;18.05;10.48;;;;;;;3.48;79.43;98536.47;4819950;29;20057;-92
2022/12/23 20:39:16;;;;;;;17.75;10.32;;;;;;;3.62;79.93;98554.72;4806229;29;20046;-92
2022/12/23 20:41:42;;;;;;;15.38;9.73;;;;;;;2.81;79.19;98435.56;4805464;29;20054;-93